Time;durP1;ratioP1;P1;durP2;ratioP2;P2;SDS_P1;SDS_P2;PMS_P1;PMS_P2;Temp;Humidity;BMP_temperature;BMP_pressure;BME280_temperature;BME280_humidity;BME280_pressure;Samples;Min_cycle;Max_cycle;Signal;HPM_P1;HPM_P2
2020/12/26 00:01:15;;;;;;;0.30;0.13;;;7.70;61.90;;;;;;5036150;28;20416;-67
2020/12/26 00:03:42;;;;;;;0.10;0.00;;;7.70;61.40;;;;;;5036220;28;20072;-67
2020/12/26 00:06:07;;;;;;;0.43;0.20;;;7.60;61.30;;;;;;5035854;28;20071;-67
2020/12/26 00:08:34;;;;;;;2.20;0.10;;;7.60;61.70;;;;;;5036214;28;20421;-67
2020/12/26 00:11:01;;;;;;;0.70;0.20;;;7.60;61.80;;;;;;5035913;28;20041;-67
2020/12/26 00:13:27;;;;;;;0.57;0.10;;;7.60;61.20;;;;;;5035887;28;20486;-67
2020/12/26 00:15:53;;;;;;;0.20;0.17;;;7.60;61.00;;;;;;5035701;28;20040;-67
2020/12/26 00:18:19;;;;;;;0.20;0.13;;;7.60;61.00;;;;;;5035882;28;20018;-67
2020/12/26 00:20:44;;;;;;;0.27;0.10;;;7.60;61.50;;;;;;5035427;28;20089;-67
2020/12/26 00:23:10;;;;;;;0.20;0.13;;;7.60;62.60;;;;;;5036065;28;20040;-67
2020/12/26 00:25:36;;;;;;;0.10;0.10;;;7.60;62.90;;;;;;5035525;28;20421;-67
2020/12/26 00:28:04;;;;;;;0.23;0.20;;;7.50;62.90;;;;;;5035900;28;20028;-67
2020/12/26 00:30:30;;;;;;;0.10;0.10;;;7.50;62.90;;;;;;5035480;28;20021;-67
2020/12/26 00:32:55;;;;;;;0.20;0.13;;;7.50;62.80;;;;;;5035167;28;20032;-67
2020/12/26 00:35:21;;;;;;;0.10;0.10;;;7.50;61.00;;;;;;5035250;28;20394;-67
2020/12/26 00:37:47;;;;;;;0.10;0.10;;;7.40;63.70;;;;;;5035429;28;20073;-67
2020/12/26 00:40:12;;;;;;;0.20;0.20;;;7.40;63.80;;;;;;5035592;28;20026;-67
2020/12/26 00:42:38;;;;;;;0.17;0.13;;;7.40;62.90;;;;;;5035707;28;20033;-67
2020/12/26 00:45:04;;;;;;;0.10;0.10;;;7.40;64.00;;;;;;5035316;28;20023;-67
2020/12/26 00:47:29;;;;;;;0.30;0.20;;;7.40;64.30;;;;;;5035615;28;20040;-67
2020/12/26 00:49:55;;;;;;;0.70;0.40;;;7.40;64.30;;;;;;5035320;28;20104;-67
2020/12/26 00:52:21;;;;;;;0.20;0.20;;;7.30;63.40;;;;;;5035524;28;20025;-67
2020/12/26 00:54:46;;;;;;;0.50;0.23;;;7.30;65.10;;;;;;5035080;28;20100;-67
2020/12/26 00:57:12;;;;;;;0.90;0.40;;;7.20;66.80;;;;;;5035112;28;20022;-67
2020/12/26 00:59:38;;;;;;;0.97;0.30;;;7.10;64.60;;;;;;5035186;28;20056;-67
2020/12/26 01:02:04;;;;;;;4.57;0.30;;;7.10;65.90;;;;;;5035198;28;20036;-67
2020/12/26 01:04:30;;;;;;;0.87;0.30;;;7.10;65.20;;;;;;5033534;28;20026;-67
2020/12/26 01:06:56;;;;;;;0.10;0.10;;;7.10;65.00;;;;;;5034959;28;20092;-67
2020/12/26 01:09:23;;;;;;;0.43;0.20;;;7.10;64.60;;;;;;5034723;28;20080;-67
2020/12/26 01:11:49;;;;;;;0.23;0.20;;;7.10;66.10;;;;;;5034671;28;20029;-67
2020/12/26 01:14:15;;;;;;;0.43;0.30;;;7.00;67.20;;;;;;5034850;28;20104;-67
2020/12/26 01:16:41;;;;;;;0.10;0.10;;;7.00;64.30;;;;;;5034828;28;20060;-67
2020/12/26 01:19:07;;;;;;;0.20;0.20;;;6.90;67.00;;;;;;5034965;28;20024;-67
2020/12/26 01:21:32;;;;;;;0.40;0.27;;;6.90;66.60;;;;;;5034453;28;20037;-67
2020/12/26 01:23:58;;;;;;;0.20;0.20;;;6.80;66.70;;;;;;5034658;28;20385;-67
2020/12/26 01:26:24;;;;;;;1.00;0.33;;;6.70;67.20;;;;;;5034653;28;20101;-67
2020/12/26 01:28:49;;;;;;;0.40;0.20;;;6.60;68.70;;;;;;5034810;28;20021;-67
2020/12/26 01:31:15;;;;;;;0.70;0.37;;;6.60;68.00;;;;;;5034493;28;20493;-67
2020/12/26 01:33:42;;;;;;;1.27;0.60;;;6.60;66.20;;;;;;5034413;28;20022;-67
2020/12/26 01:36:12;;;;;;;0.90;0.40;;;6.60;66.60;;;;;;5034252;28;20041;-67
2020/12/26 01:38:38;;;;;;;0.40;0.30;;;6.70;66.40;;;;;;5034292;28;20029;-67
2020/12/26 01:41:04;;;;;;;0.60;0.40;;;6.70;64.70;;;;;;5034403;28;20018;-67
2020/12/26 01:43:30;;;;;;;0.73;0.43;;;6.70;65.00;;;;;;5034357;28;20029;-67
2020/12/26 01:45:56;;;;;;;0.20;0.20;;;6.70;64.90;;;;;;5033863;28;20017;-67
2020/12/26 01:48:22;;;;;;;0.70;0.30;;;6.70;62.80;;;;;;5034208;28;20042;-67
2020/12/26 01:50:51;;;;;;;4.47;0.20;;;6.90;62.20;;;;;;5034332;28;20543;-67
2020/12/26 01:53:18;;;;;;;0.40;0.20;;;6.90;60.90;;;;;;5034023;28;20029;-67
2020/12/26 01:55:44;;;;;;;0.90;0.50;;;7.00;57.80;;;;;;5033955;28;20441;-67
2020/12/26 01:58:14;;;;;;;0.80;0.50;;;7.00;61.20;;;;;;5032588;28;20033;-67
2020/12/26 02:00:40;;;;;;;1.20;0.50;;;6.90;62.40;;;;;;5031056;28;20033;-68
2020/12/26 02:03:06;;;;;;;0.63;0.40;;;6.90;63.60;;;;;;5031171;28;20065;-67
2020/12/26 02:05:32;;;;;;;0.53;0.30;;;6.80;63.20;;;;;;5033055;28;20504;-67
2020/12/26 02:07:58;;;;;;;0.40;0.20;;;6.70;63.60;;;;;;5033829;28;20026;-67
2020/12/26 02:10:24;;;;;;;0.50;0.23;;;6.70;62.80;;;;;;5033593;28;20486;-67
2020/12/26 02:12:49;;;;;;;0.17;0.17;;;6.70;63.10;;;;;;5033227;28;20028;-67
2020/12/26 02:15:15;;;;;;;0.73;0.40;;;6.90;62.50;;;;;;5033309;28;20030;-67
2020/12/26 02:17:41;;;;;;;0.40;0.30;;;6.80;61.60;;;;;;5033799;28;20014;-67
2020/12/26 02:20:08;;;;;;;1.10;0.40;;;6.80;63.70;;;;;;5033368;28;20032;-67
2020/12/26 02:22:35;;;;;;;0.30;0.20;;;6.70;63.20;;;;;;5033465;28;20034;-69
2020/12/26 02:25:00;;;;;;;0.30;0.30;;;6.70;61.00;;;;;;5033371;28;20060;-67
2020/12/26 02:27:26;;;;;;;0.83;0.30;;;6.70;61.80;;;;;;5033120;28;20438;-67
2020/12/26 02:29:52;;;;;;;0.83;0.30;;;6.70;62.50;;;;;;5033387;28;20528;-67
2020/12/26 02:32:17;;;;;;;0.20;0.20;;;6.70;60.80;;;;;;5033298;28;20032;-67
2020/12/26 02:34:43;;;;;;;0.20;0.20;;;6.70;58.20;;;;;;5033080;28;20049;-67
2020/12/26 02:37:09;;;;;;;0.63;0.20;;;6.80;58.60;;;;;;5033023;28;20092;-67
2020/12/26 02:39:34;;;;;;;0.73;0.30;;;6.80;57.70;;;;;;5033398;28;20045;-67
2020/12/26 02:42:00;;;;;;;0.53;0.30;;;6.90;58.80;;;;;;5033301;28;20440;-67
2020/12/26 02:44:26;;;;;;;0.50;0.30;;;6.90;60.20;;;;;;5032835;28;20100;-67
2020/12/26 02:46:52;;;;;;;0.47;0.37;;;6.90;60.20;;;;;;5033150;28;20033;-67
2020/12/26 02:49:18;;;;;;;0.83;0.33;;;6.90;61.50;;;;;;5032946;28;20021;-67
2020/12/26 02:51:44;;;;;;;0.60;0.40;;;6.90;61.90;;;;;;5032402;28;20473;-67
2020/12/26 02:54:11;;;;;;;1.30;0.60;;;6.80;62.20;;;;;;5033011;28;20025;-67
2020/12/26 02:56:41;;;;;;;0.30;0.30;;;6.80;61.60;;;;;;5032911;28;20021;-67
2020/12/26 02:59:10;;;;;;;0.60;0.40;;;6.80;60.40;;;;;;5033313;28;20030;-67
2020/12/26 03:01:39;;;;;;;0.30;0.30;;;6.80;61.00;;;;;;5033039;28;20021;-67
2020/12/26 03:04:05;;;;;;;0.57;0.30;;;6.80;60.70;;;;;;5033041;28;20033;-67
2020/12/26 03:06:31;;;;;;;0.50;0.37;;;6.80;61.70;;;;;;5032985;28;20033;-67
2020/12/26 03:08:57;;;;;;;0.80;0.30;;;6.80;61.60;;;;;;5032859;28;20567;-67
2020/12/26 03:11:23;;;;;;;0.50;0.30;;;6.70;62.00;;;;;;5033052;28;20018;-67
2020/12/26 03:13:49;;;;;;;0.40;0.40;;;6.60;61.70;;;;;;5032898;28;20029;-66
2020/12/26 03:16:15;;;;;;;0.73;0.30;;;6.60;62.50;;;;;;5033111;28;20040;-67
2020/12/26 03:18:41;;;;;;;1.30;0.30;;;6.50;63.50;;;;;;5033024;28;20032;-67
2020/12/26 03:21:06;;;;;;;0.40;0.30;;;6.40;63.40;;;;;;5032909;28;20034;-67
2020/12/26 03:23:32;;;;;;;0.23;0.20;;;6.50;63.10;;;;;;5032941;28;20074;-67
2020/12/26 03:25:58;;;;;;;1.27;0.40;;;6.40;62.40;;;;;;5032989;28;20525;-67
2020/12/26 03:28:23;;;;;;;0.37;0.30;;;6.40;63.40;;;;;;5036335;28;20096;-66
2020/12/26 03:30:49;;;;;;;0.73;0.40;;;6.40;65.50;;;;;;5036705;28;20025;-67
2020/12/26 03:33:15;;;;;;;1.03;0.50;;;6.30;66.50;;;;;;5036694;28;20104;-67
2020/12/26 03:35:40;;;;;;;0.53;0.30;;;6.20;66.10;;;;;;5036469;28;20025;-67
2020/12/26 03:38:06;;;;;;;0.77;0.40;;;6.20;64.40;;;;;;5036680;28;20561;-67
2020/12/26 03:40:32;;;;;;;0.67;0.50;;;6.30;65.50;;;;;;5036621;28;20040;-67
2020/12/26 03:42:57;;;;;;;1.27;0.50;;;6.30;64.80;;;;;;5036507;28;20041;-67
2020/12/26 03:45:23;;;;;;;0.60;0.47;;;6.30;64.40;;;;;;5036505;28;20028;-67
2020/12/26 03:47:48;;;;;;;0.67;0.50;;;6.20;65.00;;;;;;5036571;28;20482;-67
2020/12/26 03:50:14;;;;;;;0.70;0.50;;;6.10;65.40;;;;;;5036258;28;20025;-67
2020/12/26 03:52:40;;;;;;;0.60;0.50;;;6.10;64.90;;;;;;5036367;28;20026;-67
2020/12/26 03:55:06;;;;;;;0.90;0.53;;;6.10;65.70;;;;;;5036362;28;20017;-67
2020/12/26 03:57:31;;;;;;;0.70;0.57;;;6.10;65.40;;;;;;5036344;28;20835;-67
2020/12/26 03:59:57;;;;;;;0.97;0.63;;;6.10;66.50;;;;;;5035899;28;20028;-66
2020/12/26 04:02:23;;;;;;;0.77;0.50;;;6.10;66.20;;;;;;5035906;28;20063;-66
2020/12/26 04:04:48;;;;;;;0.53;0.40;;;6.00;66.90;;;;;;5036139;28;20069;-66
2020/12/26 04:07:14;;;;;;;1.20;0.47;;;6.00;68.30;;;;;;5036122;28;20419;-66
2020/12/26 04:09:39;;;;;;;0.80;0.40;;;6.00;66.60;;;;;;5036304;28;20025;-67
2020/12/26 04:12:06;;;;;;;0.83;0.53;;;6.00;66.60;;;;;;5036121;28;20029;-67
2020/12/26 04:14:32;;;;;;;0.93;0.50;;;6.00;65.70;;;;;;5035886;28;20052;-67
2020/12/26 04:16:58;;;;;;;0.97;0.50;;;6.00;65.80;;;;;;5035981;28;20025;-67
2020/12/26 04:19:25;;;;;;;0.87;0.60;;;6.10;65.30;;;;;;5035749;28;20017;-66
2020/12/26 04:21:51;;;;;;;0.77;0.60;;;6.00;65.40;;;;;;5035814;28;20042;-66
2020/12/26 04:24:17;;;;;;;1.10;0.60;;;6.10;65.90;;;;;;5035690;28;20075;-67
2020/12/26 04:26:42;;;;;;;2.17;0.50;;;6.00;66.50;;;;;;5035753;28;20025;-67
2020/12/26 04:29:08;;;;;;;0.70;0.47;;;6.00;66.90;;;;;;5035779;28;20033;-66
2020/12/26 04:31:34;;;;;;;0.57;0.40;;;5.90;66.10;;;;;;5035830;28;20097;-67
2020/12/26 04:34:00;;;;;;;0.20;0.20;;;5.90;66.00;;;;;;5035530;28;20025;-67
2020/12/26 04:36:26;;;;;;;0.60;0.60;;;6.00;64.10;;;;;;5035415;28;20048;-66
2020/12/26 04:38:52;;;;;;;1.17;0.50;;;6.00;64.20;;;;;;5035196;28;20810;-67
2020/12/26 04:41:19;;;;;;;0.83;0.60;;;6.10;62.90;;;;;;5035393;28;20041;-66
2020/12/26 04:43:46;;;;;;;0.80;0.40;;;6.10;63.10;;;;;;5035214;28;20053;-67
2020/12/26 04:46:17;;;;;;;1.03;0.57;;;6.20;60.70;;;;;;5035448;28;20030;-67
2020/12/26 04:48:50;;;;;;;0.50;0.47;;;6.20;60.70;;;;;;5035281;28;20029;-66
2020/12/26 04:51:17;;;;;;;1.00;0.70;;;6.30;61.80;;;;;;5035659;28;20055;-66
2020/12/26 04:53:45;;;;;;;1.53;0.70;;;6.30;62.00;;;;;;5035282;28;20104;-66
2020/12/26 04:56:12;;;;;;;0.60;0.40;;;6.40;63.10;;;;;;5035272;28;20084;-66
2020/12/26 04:58:42;;;;;;;0.70;0.50;;;6.40;62.60;;;;;;5035406;28;20363;-66
2020/12/26 05:01:09;;;;;;;0.50;0.40;;;6.40;59.20;;;;;;5035057;28;20068;-67
2020/12/26 05:03:35;;;;;;;0.73;0.40;;;6.50;58.50;;;;;;5035128;28;20025;-66
2020/12/26 05:06:05;;;;;;;1.23;0.70;;;6.50;61.00;;;;;;5034793;28;20029;-66
2020/12/26 05:08:32;;;;;;;0.60;0.40;;;6.50;61.40;;;;;;5034930;28;20029;-66
2020/12/26 05:10:59;;;;;;;0.60;0.50;;;6.50;60.20;;;;;;5035310;28;20060;-67
2020/12/26 05:13:24;;;;;;;0.80;0.43;;;6.50;61.90;;;;;;5034915;28;20021;-66
2020/12/26 05:15:52;;;;;;;0.97;0.67;;;6.50;62.00;;;;;;5034733;28;20079;-67
2020/12/26 05:18:18;;;;;;;0.67;0.50;;;6.50;61.50;;;;;;5035012;28;20029;-67
2020/12/26 05:20:44;;;;;;;0.50;0.50;;;6.40;62.50;;;;;;5034499;28;20026;-67
2020/12/26 05:23:11;;;;;;;0.50;0.50;;;6.40;62.90;;;;;;5034872;28;20492;-67
2020/12/26 05:25:43;;;;;;;0.63;0.53;;;6.40;63.10;;;;;;5034493;28;20057;-67
2020/12/26 05:28:20;;;;;;;0.68;0.50;;;6.40;62.60;;;;;;5034642;28;20477;-66
2020/12/26 05:30:48;;;;;;;0.97;0.50;;;6.40;62.20;;;;;;5034814;28;20060;-66
2020/12/26 05:33:15;;;;;;;0.73;0.60;;;6.30;64.20;;;;;;5034519;28;20060;-67
2020/12/26 05:35:52;;;;;;;1.13;0.60;;;6.30;64.80;;;;;;5034285;28;20048;-66
2020/12/26 05:38:26;;;;;;;0.60;0.60;;;6.30;64.00;;;;;;5034658;28;20482;-67
2020/12/26 05:40:56;;;;;;;3.67;0.93;;;6.30;64.20;;;;;;5034380;28;20026;-67
2020/12/26 05:43:27;;;;;;;0.70;0.50;;;6.30;63.70;;;;;;5034489;28;20030;-67
2020/12/26 05:45:53;;;;;;;0.87;0.63;;;6.30;64.40;;;;;;5034036;28;20462;-67
2020/12/26 05:48:21;;;;;;;0.70;0.50;;;6.40;63.10;;;;;;5034312;28;20421;-67
2020/12/26 05:50:47;;;;;;;1.40;0.60;;;6.40;62.60;;;;;;5033770;28;20025;-66
2020/12/26 05:53:15;;;;;;;0.60;0.50;;;6.50;62.60;;;;;;5034200;28;20049;-67
2020/12/26 05:55:43;;;;;;;1.77;0.70;;;6.60;60.80;;;;;;5034279;28;20064;-67
2020/12/26 05:58:09;;;;;;;0.93;0.60;;;6.50;61.30;;;;;;5033909;28;20108;-67
2020/12/26 06:00:44;;;;;;;1.00;0.80;;;6.50;61.90;;;;;;5034049;28;20017;-66
2020/12/26 06:03:23;;;;;;;1.13;0.80;;;6.50;62.60;;;;;;5034076;28;20033;-66
2020/12/26 06:05:51;;;;;;;1.27;0.90;;;6.50;61.80;;;;;;5033907;28;20021;-67
2020/12/26 06:08:18;;;;;;;1.47;0.77;;;6.50;63.20;;;;;;5033758;28;20022;-67
2020/12/26 06:11:05;;;;;;;1.80;0.90;;;6.50;64.60;;;;;;5033960;28;20028;-67
2020/12/26 06:13:33;;;;;;;0.90;0.80;;;6.50;63.80;;;;;;5033796;28;20025;-67
2020/12/26 06:16:07;;;;;;;1.30;0.73;;;6.40;62.30;;;;;;5034075;28;20468;-67
2020/12/26 06:18:46;;;;;;;1.03;0.60;;;6.40;64.00;;;;;;5033680;28;20388;-67
2020/12/26 06:21:12;;;;;;;1.23;0.87;;;6.50;63.50;;;;;;5033524;28;20075;-67
2020/12/26 06:23:40;;;;;;;1.10;0.70;;;6.50;63.20;;;;;;5033775;28;20112;-66
2020/12/26 06:26:06;;;;;;;0.83;0.70;;;6.50;63.40;;;;;;5033562;28;20108;-67
2020/12/26 06:28:33;;;;;;;2.10;0.70;;;6.60;63.00;;;;;;5033738;28;20238;-66
2020/12/26 06:31:05;;;;;;;1.00;0.63;;;6.50;63.70;;;;;;5033567;28;20044;-66
2020/12/26 06:33:44;;;;;;;1.67;0.65;;;6.50;64.20;;;;;;5033396;28;20494;-66
2020/12/26 06:36:11;;;;;;;0.70;0.60;;;6.50;61.90;;;;;;5033230;28;20120;-66
2020/12/26 06:38:38;;;;;;;1.43;0.90;;;6.50;61.20;;;;;;5033512;28;20030;-67
2020/12/26 06:41:15;;;;;;;1.20;0.80;;;6.60;62.30;;;;;;5033293;28;20017;-67
2020/12/26 06:44:06;;;;;;;1.00;0.80;;;6.60;62.60;;;;;;5033330;28;20033;-66
2020/12/26 06:46:32;;;;;;;1.37;0.70;;;6.60;61.90;;;;;;5032019;28;20037;-67
2020/12/26 06:48:58;;;;;;;1.13;0.70;;;6.50;62.20;;;;;;5033028;28;20478;-66
2020/12/26 06:51:40;;;;;;;2.90;0.87;;;6.50;62.60;;;;;;5032086;28;20386;-66
2020/12/26 06:54:12;;;;;;;1.40;0.80;;;6.60;62.10;;;;;;5032937;28;20048;-67
2020/12/26 06:56:37;;;;;;;1.60;0.70;;;6.60;63.40;;;;;;5032809;28;20033;-67
2020/12/26 06:59:06;;;;;;;1.77;0.80;;;6.60;63.40;;;;;;5033253;28;20497;-67
2020/12/26 07:01:34;;;;;;;1.43;0.83;;;6.60;64.40;;;;;;5032974;28;20425;-67
2020/12/26 07:04:13;;;;;;;1.70;0.80;;;6.50;64.80;;;;;;5033266;28;20018;-66
2020/12/26 07:06:41;;;;;;;1.60;1.00;;;6.50;63.80;;;;;;5034549;28;20060;-67
2020/12/26 07:09:08;;;;;;;2.63;1.20;;;6.40;63.80;;;;;;5033395;28;20033;-66
2020/12/26 07:11:51;;;;;;;1.50;1.07;;;6.40;65.10;;;;;;5032939;28;20030;-67
2020/12/26 07:14:31;;;;;;;0.90;0.70;;;6.50;65.30;;;;;;5033184;28;20099;-67
2020/12/26 07:17:05;;;;;;;1.10;0.70;;;6.60;61.60;;;;;;5032906;28;20036;-66
2020/12/26 07:19:39;;;;;;;0.83;0.50;;;6.60;60.60;;;;;;5033199;28;20399;-67
2020/12/26 07:22:22;;;;;;;1.20;0.70;;;6.60;60.90;;;;;;5032930;28;20389;-66
2020/12/26 07:24:53;;;;;;;0.70;0.60;;;6.70;60.10;;;;;;5032987;28;20112;-66
2020/12/26 07:27:23;;;;;;;1.03;0.70;;;6.60;60.30;;;;;;5032940;28;20064;-67
2020/12/26 07:30:18;;;;;;;1.20;0.77;;;6.70;60.40;;;;;;5032759;28;20021;-68
2020/12/26 07:32:48;;;;;;;1.50;0.73;;;6.70;60.90;;;;;;5032775;28;20488;-66
2020/12/26 07:35:20;;;;;;;2.10;0.97;;;6.60;60.00;;;;;;5032590;28;20546;-66
2020/12/26 07:37:54;;;;;;;1.30;0.87;;;6.60;60.50;;;;;;5032723;28;20444;-66
2020/12/26 07:40:31;;;;;;;1.20;0.90;;;6.60;61.40;;;;;;5032824;28;20022;-66
2020/12/26 07:42:59;;;;;;;1.27;0.90;;;6.60;61.90;;;;;;5032803;28;20072;-67
2020/12/26 07:45:29;;;;;;;1.80;1.00;;;6.70;62.40;;;;;;5032749;28;20025;-67
2020/12/26 07:47:56;;;;;;;2.97;2.23;;;6.60;63.50;;;;;;5032322;28;20116;-67
2020/12/26 07:50:23;;;;;;;4.00;3.27;;;6.60;62.60;;;;;;5032738;28;20029;-67
2020/12/26 07:52:51;;;;;;;4.03;2.17;;;6.60;63.20;;;;;;5032747;28;20120;-66
2020/12/26 07:55:17;;;;;;;4.17;2.00;;;6.60;63.40;;;;;;5032724;28;20105;-67
2020/12/26 07:57:43;;;;;;;2.60;2.00;;;6.60;63.70;;;;;;5032760;28;20033;-68
2020/12/26 08:00:20;;;;;;;2.20;1.07;;;6.70;64.30;;;;;;5029476;28;20480;-68
2020/12/26 08:02:50;;;;;;;1.40;0.90;;;6.70;62.70;;;;;;5029719;28;20390;-68
2020/12/26 08:05:24;;;;;;;1.10;0.70;;;6.80;61.40;;;;;;5030810;28;20018;-67
2020/12/26 08:07:50;;;;;;;1.10;0.87;;;6.80;59.40;;;;;;5032344;28;20026;-66
2020/12/26 08:10:16;;;;;;;2.17;0.90;;;6.80;58.60;;;;;;5032446;28;20022;-68
2020/12/26 08:12:53;;;;;;;1.60;1.00;;;6.90;58.50;;;;;;5033006;28;20354;-68
2020/12/26 08:15:20;;;;;;;1.67;1.20;;;6.90;57.50;;;;;;5035513;28;20029;-66
2020/12/26 08:18:00;;;;;;;1.63;1.20;;;6.90;58.80;;;;;;5035625;28;20060;-68
2020/12/26 08:20:28;;;;;;;1.40;0.90;;;6.90;58.50;;;;;;5036073;28;20033;-68
2020/12/26 08:22:55;;;;;;;0.80;0.70;;;6.90;58.20;;;;;;5035237;28;20127;-69
2020/12/26 08:25:26;;;;;;;1.90;0.80;;;6.90;57.00;;;;;;5034267;28;20385;-68
2020/12/26 08:27:52;;;;;;;1.73;1.10;;;7.00;57.10;;;;;;5035882;28;20109;-68
2020/12/26 08:30:27;;;;;;;2.93;1.63;;;7.00;57.10;;;;;;5035340;28;20100;-69
2020/12/26 08:33:05;;;;;;;2.10;1.50;;;7.00;57.10;;;;;;5035494;28;20056;-68
2020/12/26 08:35:32;;;;;;;1.57;1.20;;;7.00;56.80;;;;;;5033997;28;20033;-69
2020/12/26 08:38:08;;;;;;;2.83;1.40;;;7.00;58.80;;;;;;5032483;28;20064;-68
2020/12/26 08:40:37;;;;;;;3.40;2.40;;;7.00;58.60;;;;;;5033854;28;20434;-68
2020/12/26 08:43:04;;;;;;;3.77;2.13;;;6.90;59.90;;;;;;5035496;28;20046;-68
2020/12/26 08:45:31;;;;;;;2.67;1.90;;;6.90;61.20;;;;;;5035175;28;20026;-69
2020/12/26 08:47:59;;;;;;;3.07;2.30;;;6.90;61.00;;;;;;5033767;28;20033;-70
2020/12/26 08:50:26;;;;;;;4.03;2.63;;;6.80;59.80;;;;;;5032163;28;20424;-69
2020/12/26 08:53:03;;;;;;;2.00;1.50;;;6.80;62.10;;;;;;5032098;28;20129;-69
2020/12/26 08:55:28;;;;;;;3.37;1.93;;;6.80;60.60;;;;;;5034100;28;20351;-69
2020/12/26 08:57:58;;;;;;;2.53;1.50;;;6.80;61.00;;;;;;5035007;28;20056;-69
2020/12/26 09:00:26;;;;;;;2.63;1.47;;;6.90;60.00;;;;;;5034999;28;20097;-68
2020/12/26 09:02:53;;;;;;;2.50;1.70;;;6.90;59.80;;;;;;5034663;28;20033;-68
2020/12/26 09:05:29;;;;;;;2.67;1.50;;;6.90;60.40;;;;;;5034991;28;20032;-68
2020/12/26 09:08:12;;;;;;;1.93;1.20;;;6.90;60.60;;;;;;5034573;28;20064;-69
2020/12/26 09:10:38;;;;;;;2.72;1.58;;;7.00;59.30;;;;;;5034982;28;20038;-68
2020/12/26 09:13:13;;;;;;;1.70;1.30;;;7.00;60.00;;;;;;5034701;28;20084;-68
2020/12/26 09:15:53;;;;;;;2.17;0.90;;;7.00;59.50;;;;;;5034716;28;20032;-68
2020/12/26 09:18:22;;;;;;;2.07;1.00;;;7.10;58.40;;;;;;5034623;28;20025;-68
2020/12/26 09:20:53;;;;;;;2.17;1.40;;;7.10;57.10;;;;;;5034710;28;20032;-69
2020/12/26 09:23:19;;;;;;;2.93;2.20;;;7.10;56.40;;;;;;5034245;28;20116;-68
2020/12/26 09:25:46;;;;;;;2.07;1.30;;;7.10;56.10;;;;;;5033284;28;20026;-69
2020/12/26 09:28:12;;;;;;;3.57;1.60;;;7.20;57.30;;;;;;5033977;28;20028;-69
2020/12/26 09:30:37;;;;;;;1.47;0.90;;;7.20;57.50;;;;;;5033656;28;20470;-69
2020/12/26 09:33:03;;;;;;;5.33;3.47;;;7.20;54.60;;;;;;5034378;28;20026;-68
2020/12/26 09:35:30;;;;;;;2.17;1.47;;;7.20;55.70;;;;;;5033832;28;20053;-69
2020/12/26 09:37:59;;;;;;;4.73;3.10;;;7.20;57.20;;;;;;5034147;28;20050;-68
2020/12/26 09:40:32;;;;;;;4.20;2.30;;;7.10;58.40;;;;;;5033848;28;20025;-69
2020/12/26 09:42:59;;;;;;;3.90;2.30;;;7.10;58.50;;;;;;5034034;28;20038;-68
2020/12/26 09:45:25;;;;;;;3.53;2.00;;;;;;;;;;5033745;28;20018;-69
2020/12/26 09:47:51;;;;;;;11.47;8.90;;;;;;;;;;5033476;28;20021;-69
2020/12/26 09:50:17;;;;;;;7.47;4.97;;;;;;;;;;5034422;28;20417;-69
2020/12/26 09:52:43;;;;;;;4.50;2.07;;;;;;;;;;5033685;28;20022;-69
2020/12/26 09:55:10;;;;;;;3.17;1.37;;;;;;;;;;5033660;28;20037;-69
2020/12/26 09:57:37;;;;;;;1.53;1.20;;;;;;;;;;5033884;28;20032;-69
2020/12/26 10:00:04;;;;;;;2.27;1.43;;;;;;;;;;5033554;28;20041;-68
2020/12/26 10:02:30;;;;;;;1.33;0.93;;;;;;;;;;5033478;28;20436;-68
2020/12/26 10:04:56;;;;;;;1.80;1.10;;;;;;;;;;5033623;28;20033;-68
2020/12/26 10:07:22;;;;;;;1.07;0.70;;;;;;;;;;5033696;28;20025;-68
2020/12/26 10:09:48;;;;;;;1.30;0.80;;;;;;;;;;5033687;28;20432;-69
2020/12/26 10:12:14;;;;;;;1.33;0.90;;;;;;;;;;5027315;28;20060;-69
2020/12/26 10:14:40;;;;;;;1.60;0.87;;;;;;;;;;5020474;28;20022;-68
2020/12/26 10:17:07;;;;;;;1.17;0.80;;;;;;;;;;5011533;28;20083;-69
2020/12/26 10:19:33;;;;;;;1.73;1.27;;;;;;;;;;5011665;28;20101;-69
2020/12/26 10:21:59;;;;;;;1.80;1.00;;;;;;;;;;5013578;28;20060;-68
2020/12/26 10:24:25;;;;;;;2.20;1.10;;;;;;;;;;5013314;28;20026;-69
2020/12/26 10:26:51;;;;;;;1.17;0.80;;;;;;;;;;5011623;28;20389;-68
2020/12/26 10:29:17;;;;;;;1.53;1.07;;;;;;;;;;5011977;28;20470;-67
2020/12/26 10:31:43;;;;;;;2.43;1.40;;;;;;;;;;5013307;28;20057;-68
2020/12/26 10:34:09;;;;;;;1.57;1.17;;;;;;;;;;5013299;28;20034;-68
2020/12/26 10:36:40;;;;;;;1.40;1.10;;;;;;;;;;5013151;28;20049;-68
2020/12/26 10:39:06;;;;;;;2.20;1.37;;;;;;;;;;5013319;28;20069;-68
2020/12/26 10:41:32;;;;;;;1.50;1.20;;;;;;;;;;5013114;28;20115;-68
2020/12/26 10:43:58;;;;;;;4.10;1.30;;;;;;;;;;5013291;28;20458;-68
2020/12/26 10:46:24;;;;;;;4.63;1.20;;;;;;;;;;5013467;28;20030;-68
2020/12/26 10:48:50;;;;;;;2.67;1.00;;;;;;;;;;5013046;28;20048;-68
2020/12/26 10:51:16;;;;;;;1.57;1.00;;;;;;;;;;5012402;28;20442;-68
2020/12/26 10:53:42;;;;;;;1.23;1.00;;;;;;;;;;5012842;28;20110;-69
2020/12/26 10:56:08;;;;;;;1.33;0.90;;;;;;;;;;5012979;28;20025;-68
2020/12/26 10:58:34;;;;;;;5.57;1.20;;;;;;;;;;5013228;28;20038;-68
2020/12/26 11:01:01;;;;;;;1.57;1.00;;;;;;;;;;5013034;28;20053;-68
2020/12/26 11:03:27;;;;;;;1.37;1.07;;;;;;;;;;5012358;28;20088;-68
2020/12/26 11:05:53;;;;;;;2.60;0.80;;;;;;;;;;5012010;28;20022;-67
2020/12/26 11:08:19;;;;;;;1.50;1.00;;;;;;;;;;5012049;28;20383;-70
2020/12/26 11:10:45;;;;;;;1.53;1.00;;;;;;;;;;5012631;28;20030;-68
2020/12/26 11:13:11;;;;;;;4.33;1.30;;;;;;;;;;5013030;28;20444;-68
2020/12/26 11:15:37;;;;;;;1.83;1.20;;;;;;;;;;5012944;28;20041;-67
2020/12/26 11:18:03;;;;;;;2.57;1.60;;;;;;;;;;5013173;28;20065;-68
2020/12/26 11:20:30;;;;;;;5.27;1.27;;;;;;;;;;5012980;28;20026;-68
2020/12/26 11:22:56;;;;;;;2.00;1.50;;;;;;;;;;5012994;28;20034;-67
2020/12/26 11:25:22;;;;;;;2.30;1.70;;;;;;;;;;5012882;28;20029;-68
2020/12/26 11:27:48;;;;;;;2.77;1.77;;;;;;;;;;5013055;28;20026;-67
2020/12/26 11:30:14;;;;;;;2.70;2.10;;;;;;;;;;5012977;28;20087;-67
2020/12/26 11:32:40;;;;;;;5.43;2.03;;;;;;;;;;5013018;28;20025;-68
2020/12/26 11:35:06;;;;;;;2.40;1.70;;;;;;;;;;5013805;28;20026;-68
2020/12/26 11:37:32;;;;;;;3.20;1.73;;;;;;;;;;5010288;28;20052;-68
2020/12/26 11:39:58;;;;;;;2.27;1.27;;;;;;;;;;5010135;28;20026;-68
2020/12/26 11:42:24;;;;;;;1.50;1.10;;;;;;;;;;5011809;28;20070;-68
2020/12/26 11:44:50;;;;;;;1.67;0.87;;;;;;;;;;5012751;28;20076;-69
2020/12/26 11:47:16;;;;;;;1.93;0.93;;;;;;;;;;5012987;28;20021;-68
2020/12/26 11:49:42;;;;;;;1.43;0.93;;;;;;;;;;5016538;28;20021;-69
2020/12/26 11:52:08;;;;;;;1.77;1.17;;;;;;;;;;5016575;28;20022;-68
2020/12/26 11:54:34;;;;;;;1.20;0.90;;;;;;;;;;5016031;28;20067;-68
2020/12/26 11:57:00;;;;;;;1.23;1.00;;;;;;;;;;5016096;28;20486;-70
2020/12/26 11:59:26;;;;;;;1.40;0.90;;;;;;;;;;5016109;28;20421;-68
2020/12/26 12:01:56;;;;;;;1.57;0.93;;;;;;;;;;5016248;28;20367;-68
2020/12/26 12:04:22;;;;;;;1.73;1.00;;;;;;;;;;5015208;28;20033;-68
2020/12/26 12:06:49;;;;;;;1.60;1.10;;;;;;;;;;5014876;28;20022;-68
2020/12/26 12:09:15;;;;;;;2.07;1.20;;;;;;;;;;5015896;28;20444;-68
2020/12/26 12:11:41;;;;;;;1.63;1.10;;;;;;;;;;5016137;28;20379;-68
2020/12/26 12:14:07;;;;;;;1.53;1.00;;;;;;;;;;5014860;28;20032;-70
2020/12/26 12:16:33;;;;;;;1.23;0.83;;;;;;;;;;5015819;28;20084;-69
2020/12/26 12:18:59;;;;;;;1.33;0.83;;;;;;;;;;5015608;28;20475;-68
2020/12/26 12:21:25;;;;;;;1.50;1.00;;;;;;;;;;5015822;28;20459;-69
2020/12/26 12:23:51;;;;;;;1.30;1.00;;;;;;;;;;5015842;28;20101;-68
2020/12/26 12:26:24;;;;;;;1.70;1.00;;;;;;;;;;5015707;28;20050;-68
2020/12/26 12:28:54;;;;;;;2.40;2.20;;;;;;;;;;5015759;28;20052;-68
2020/12/26 12:31:21;;;;;;;2.47;1.70;;;;;;;;;;5015224;28;20429;-69
2020/12/26 12:33:47;;;;;;;1.77;1.17;;;;;;;;;;5015386;28;20555;-71
2020/12/26 12:36:13;;;;;;;2.60;1.30;;;;;;;;;;5015117;28;20042;-69
2020/12/26 12:38:40;;;;;;;1.73;1.30;;;;;;;;;;5015533;28;20144;-68
2020/12/26 12:41:06;;;;;;;1.50;1.10;;;;;;;;;;5015425;28;20033;-68
2020/12/26 12:43:32;;;;;;;1.97;1.03;;;;;;;;;;5015472;28;20064;-67
2020/12/26 12:45:58;;;;;;;1.50;1.00;;;;;;;;;;5015422;28;20025;-67
2020/12/26 12:48:24;;;;;;;1.60;1.33;;;;;;;;;;5015373;28;20032;-69
2020/12/26 12:50:50;;;;;;;1.70;1.30;;;;;;;;;;5015140;28;20022;-67
2020/12/26 12:53:16;;;;;;;1.90;1.10;;;;;;;;;;5015341;28;20221;-69
2020/12/26 12:55:42;;;;;;;1.17;0.90;;;;;;;;;;5015116;28;20054;-68
2020/12/26 12:58:08;;;;;;;1.20;0.90;;;;;;;;;;5015203;28;20597;-68
2020/12/26 13:00:34;;;;;;;1.87;1.30;;;;;;;;;;5015230;28;20018;-69
2020/12/26 13:03:00;;;;;;;2.33;1.30;;;;;;;;;;5014789;28;20422;-68
2020/12/26 13:05:26;;;;;;;2.43;1.20;;;;;;;;;;5014453;28;20538;-68
2020/12/26 13:07:52;;;;;;;2.80;1.70;;;;;;;;;;5014315;28;20429;-69
2020/12/26 13:10:18;;;;;;;2.30;1.60;;;;;;;;;;5014192;28;20018;-68
2020/12/26 13:12:44;;;;;;;3.50;1.80;;;;;;;;;;5014370;28;20045;-68
2020/12/26 13:15:10;;;;;;;4.13;1.70;;;;;;;;;;5013811;28;20030;-68
2020/12/26 13:17:36;;;;;;;1.90;1.40;;;;;;;;;;5014934;28;20050;-67
2020/12/26 13:20:03;;;;;;;1.67;1.20;;;;;;;;;;5015013;28;20615;-70
2020/12/26 13:22:29;;;;;;;2.00;1.07;;;;;;;;;;5015255;28;20474;-68
2020/12/26 13:24:55;;;;;;;2.30;1.13;;;;;;;;;;5015306;28;20022;-68
2020/12/26 13:27:21;;;;;;;2.53;1.80;;;;;;;;;;5014996;28;20100;-68